createdAt,value
2018-11-14T00:00:25.700Z,10.23
2018-11-14T00:01:00.506Z,11.00
2018-11-14T00:01:34.817Z,13.23
2018-11-14T00:02:09.138Z,13.63
2018-11-14T00:02:43.473Z,9.40
2018-11-14T00:03:17.866Z,10.63
2018-11-14T00:03:52.189Z,11.90
2018-11-14T00:04:26.520Z,11.90
2018-11-14T00:05:00.949Z,14.00
2018-11-14T00:05:35.298Z,18.93
2018-11-14T00:06:09.608Z,13.63
2018-11-14T00:06:43.954Z,8.63
2018-11-14T00:07:18.322Z,17.60
2018-11-14T00:07:52.667Z,8.63
2018-11-14T00:08:27.020Z,12.73
2018-11-14T00:09:01.385Z,12.13
2018-11-14T00:09:35.720Z,7.50
2018-11-14T00:10:10.721Z,11.07
2018-11-14T00:10:45.280Z,11.43
2018-11-14T00:11:19.617Z,12.53
2018-11-14T00:11:54.005Z,12.23
2018-11-14T00:12:28.327Z,12.30
2018-11-14T00:13:02.702Z,9.50
2018-11-14T00:13:37.051Z,10.10
2018-11-14T00:14:11.425Z,9.73
2018-11-14T00:14:45.812Z,12.30
2018-11-14T00:15:24.039Z,9.77
2018-11-14T00:15:58.446Z,11.00
2018-11-14T00:16:32.764Z,12.10
2018-11-14T00:17:07.132Z,8.47
2018-11-14T00:17:42.704Z,9.63
2018-11-14T00:18:17.108Z,10.30
2018-11-14T00:18:51.613Z,10.70
2018-11-14T00:19:26.051Z,9.53
2018-11-14T00:20:00.920Z,14.17
2018-11-14T00:20:35.254Z,10.73
2018-11-14T00:21:09.724Z,12.57
2018-11-14T00:21:44.455Z,13.10
2018-11-14T00:22:18.524Z,10.93
2018-11-14T00:22:53.558Z,9.93
2018-11-14T00:23:27.863Z,8.10
2018-11-14T00:24:02.232Z,15.03
2018-11-14T00:24:36.595Z,9.33
2018-11-14T00:25:11.184Z,10.23
2018-11-14T00:25:45.522Z,8.77
2018-11-14T00:26:19.859Z,13.57
2018-11-14T00:26:54.295Z,10.87
2018-11-14T00:27:28.630Z,9.80
2018-11-14T00:28:03.507Z,14.20
2018-11-14T00:28:37.656Z,9.73
2018-11-14T00:29:12.122Z,16.30
2018-11-14T00:29:46.503Z,8.30
2018-11-14T00:30:24.483Z,11.10
2018-11-14T00:30:58.809Z,11.90
2018-11-14T00:31:33.479Z,14.93
2018-11-14T00:32:07.787Z,9.77
2018-11-14T00:32:42.283Z,10.23
2018-11-14T00:33:17.090Z,13.30
2018-11-14T00:33:51.313Z,10.63
2018-11-14T00:34:26.061Z,11.77
2018-11-14T00:35:00.404Z,13.93
2018-11-14T00:35:34.754Z,12.93
2018-11-14T00:36:09.389Z,11.10
2018-11-14T00:36:43.761Z,13.33
2018-11-14T00:37:18.172Z,10.67
2018-11-14T00:37:52.617Z,12.80
2018-11-14T00:38:27.031Z,12.93
2018-11-14T00:39:01.387Z,11.00
2018-11-14T00:39:35.735Z,10.90
2018-11-14T00:40:12.848Z,13.17
2018-11-14T00:40:47.251Z,8.80
2018-11-14T00:41:22.007Z,11.33
2018-11-14T00:41:56.373Z,12.60
2018-11-14T00:42:30.829Z,11.67
2018-11-14T00:43:05.553Z,16.13
2018-11-14T00:43:39.900Z,12.00
2018-11-14T00:44:14.500Z,13.73
2018-11-14T00:44:48.920Z,18.03
2018-11-14T00:45:23.465Z,13.33
2018-11-14T00:45:57.796Z,9.77
2018-11-14T00:46:32.096Z,12.23
2018-11-14T00:47:06.437Z,12.40
2018-11-14T00:47:41.204Z,11.93
2018-11-14T00:48:15.695Z,12.93
2018-11-14T00:48:50.064Z,10.17
2018-11-14T00:49:24.413Z,16.83
2018-11-14T00:49:58.780Z,11.73
2018-11-14T00:50:33.128Z,11.90
2018-11-14T00:51:07.456Z,10.37
2018-11-14T00:51:41.786Z,9.93
2018-11-14T00:52:16.304Z,12.40
2018-11-14T00:52:50.652Z,9.80
2018-11-14T00:53:24.959Z,11.70
2018-11-14T00:53:59.412Z,13.30
2018-11-14T00:54:33.740Z,11.17
2018-11-14T00:55:11.390Z,11.13
2018-11-14T00:55:45.804Z,13.93
2018-11-14T00:56:20.350Z,11.37
2018-11-14T00:56:54.691Z,10.87
2018-11-14T00:57:29.083Z,10.50
2018-11-14T00:58:03.479Z,15.77
2018-11-14T00:58:37.808Z,9.77
2018-11-14T00:59:12.185Z,13.07
2018-11-14T00:59:46.592Z,11.27
2018-11-14T01:00:25.844Z,15.03
2018-11-14T01:01:00.503Z,14.63
2018-11-14T01:01:34.973Z,11.87
2018-11-14T01:02:09.392Z,10.33
2018-11-14T01:02:44.397Z,13.07
2018-11-14T01:03:18.852Z,10.67
2018-11-14T01:03:53.819Z,11.13
2018-11-14T01:04:28.146Z,11.87
2018-11-14T01:05:02.618Z,11.07
2018-11-14T01:05:36.924Z,11.60
2018-11-14T01:06:11.688Z,14.43
2018-11-14T01:06:46.185Z,8.50
2018-11-14T01:07:20.569Z,12.47
2018-11-14T01:07:54.911Z,16.07
2018-11-14T01:08:29.244Z,15.57
2018-11-14T01:09:03.998Z,12.00
2018-11-14T01:09:38.484Z,9.57
2018-11-14T01:10:15.263Z,19.53
2018-11-14T01:10:49.668Z,14.37
2018-11-14T01:11:24.075Z,11.43
2018-11-14T01:11:58.380Z,11.57
2018-11-14T01:12:32.708Z,13.63
2018-11-14T01:13:07.101Z,10.40
2018-11-14T01:13:41.651Z,13.17
2018-11-14T01:14:16.277Z,10.07
2018-11-14T01:14:50.687Z,9.97
2018-11-14T01:15:25.098Z,9.10
2018-11-14T01:15:59.455Z,11.63
2018-11-14T01:16:33.868Z,11.70
2018-11-14T01:17:08.314Z,10.93
2018-11-14T01:17:43.045Z,13.33
2018-11-14T01:18:17.487Z,13.07
2018-11-14T01:18:51.875Z,11.97
2018-11-14T01:19:26.460Z,11.83
2018-11-14T01:20:00.789Z,16.90
2018-11-14T01:20:35.174Z,13.03
2018-11-14T01:21:09.500Z,13.37
2018-11-14T01:21:43.933Z,14.00
2018-11-14T01:22:18.494Z,11.17
2018-11-14T01:22:52.972Z,13.50
2018-11-14T01:23:27.477Z,12.37
2018-11-14T01:24:01.812Z,16.57
2018-11-14T01:24:36.165Z,14.67
2018-11-14T01:25:11.895Z,10.97
2018-11-14T01:25:46.719Z,17.23
2018-11-14T01:26:21.190Z,12.97
2018-11-14T01:26:55.588Z,10.17
2018-11-14T01:27:30.115Z,8.87
2018-11-14T01:28:04.576Z,13.00
2018-11-14T01:28:39.059Z,13.80
2018-11-14T01:29:14.787Z,9.97
2018-11-14T01:29:49.224Z,15.07
2018-11-14T01:30:24.577Z,17.70
2018-11-14T01:30:58.962Z,13.60
2018-11-14T01:31:33.709Z,14.37
2018-11-14T01:32:08.111Z,12.37
2018-11-14T01:32:42.812Z,13.47
2018-11-14T01:33:17.300Z,14.87
2018-11-14T01:33:51.729Z,14.67
2018-11-14T01:34:26.263Z,13.70
2018-11-14T01:35:00.612Z,13.20
2018-11-14T01:35:35.101Z,15.27
2018-11-14T01:36:09.713Z,14.33
2018-11-14T01:36:44.152Z,14.00
2018-11-14T01:37:18.555Z,13.97
2018-11-14T01:37:52.944Z,13.83
2018-11-14T01:38:27.349Z,11.93
2018-11-14T01:39:01.720Z,10.37
2018-11-14T01:39:36.056Z,14.27
2018-11-14T01:40:16.306Z,15.23
2018-11-14T01:40:50.677Z,13.00
2018-11-14T01:41:25.032Z,11.80
2018-11-14T01:41:59.400Z,15.90
2018-11-14T01:42:33.764Z,13.60
2018-11-14T01:43:08.127Z,16.07
2018-11-14T01:43:42.501Z,15.30
2018-11-14T01:44:17.068Z,15.17
2018-11-14T01:45:07.084Z,15.53
2018-11-14T01:45:41.442Z,13.87
2018-11-14T01:46:16.381Z,16.37
2018-11-14T01:46:50.753Z,17.17
2018-11-14T01:47:25.088Z,13.03
2018-11-14T01:47:59.414Z,13.30
2018-11-14T01:48:33.756Z,14.40
2018-11-14T01:49:08.980Z,14.30
2018-11-14T01:49:43.376Z,13.03
2018-11-14T01:50:17.935Z,11.87
2018-11-14T01:50:52.310Z,14.77
2018-11-14T01:51:26.653Z,11.60
2018-11-14T01:52:01.136Z,15.10
2018-11-14T01:52:35.579Z,11.37
2018-11-14T01:53:10.078Z,14.10
2018-11-14T01:53:44.469Z,13.77
2018-11-14T01:54:18.854Z,15.60
2018-11-14T01:54:53.212Z,12.63
2018-11-14T01:55:27.560Z,15.90
2018-11-14T01:56:01.960Z,14.33
2018-11-14T01:56:36.351Z,14.27
2018-11-14T01:57:10.714Z,17.13
2018-11-14T01:57:45.152Z,13.53
2018-11-14T01:58:19.606Z,10.43
2018-11-14T01:58:54.024Z,13.40
2018-11-14T01:59:28.380Z,17.13
2018-11-14T02:00:02.724Z,16.50
2018-11-14T02:00:37.113Z,14.50
2018-11-14T02:01:11.563Z,14.40
2018-11-14T02:01:46.062Z,13.97
2018-11-14T02:02:20.872Z,15.70
2018-11-14T02:02:55.238Z,16.03
2018-11-14T02:03:29.795Z,12.47
2018-11-14T02:04:04.144Z,10.63
2018-11-14T02:04:38.486Z,11.30
2018-11-14T02:05:13.001Z,13.83
2018-11-14T02:05:47.572Z,14.43
2018-11-14T02:06:21.978Z,14.37
2018-11-14T02:06:56.316Z,12.90
2018-11-14T02:07:30.652Z,14.13
2018-11-14T02:08:05.204Z,16.00
2018-11-14T02:08:39.539Z,16.40
2018-11-14T02:09:14.184Z,13.20
2018-11-14T02:09:48.592Z,17.77
2018-11-14T02:10:23.008Z,13.23
2018-11-14T02:10:57.364Z,14.00
2018-11-14T02:11:31.742Z,12.37
2018-11-14T02:12:06.187Z,16.50
2018-11-14T02:12:41.233Z,14.70
2018-11-14T02:13:16.055Z,14.93
2018-11-14T02:13:51.092Z,12.30
2018-11-14T02:14:25.428Z,18.33
2018-11-14T02:14:59.772Z,13.67
2018-11-14T02:15:34.152Z,16.47
2018-11-14T02:16:08.519Z,16.27
2018-11-14T02:16:42.957Z,13.77
2018-11-14T02:17:17.568Z,13.97
2018-11-14T02:17:52.568Z,17.70
2018-11-14T02:18:26.941Z,14.03
2018-11-14T02:19:01.301Z,12.03
2018-11-14T02:19:35.877Z,16.23
2018-11-14T02:20:11.236Z,15.63
2018-11-14T02:20:45.852Z,13.70
2018-11-14T02:21:20.428Z,16.40
2018-11-14T02:21:54.806Z,18.50
2018-11-14T02:22:29.136Z,13.63
2018-11-14T02:23:03.524Z,19.00
2018-11-14T02:23:37.866Z,12.90
2018-11-14T02:24:13.219Z,14.10
2018-11-14T02:24:47.684Z,11.93
2018-11-14T02:25:22.116Z,14.30
2018-11-14T02:25:56.476Z,15.00
2018-11-14T02:26:30.831Z,17.37
2018-11-14T02:27:06.159Z,13.77
2018-11-14T02:27:40.773Z,15.53
2018-11-14T02:28:15.434Z,15.43
2018-11-14T02:28:51.150Z,16.13
2018-11-14T02:29:25.517Z,14.10
2018-11-14T02:29:59.882Z,15.47
2018-11-14T02:30:34.258Z,13.23
2018-11-14T02:31:08.600Z,13.90
2018-11-14T02:31:43.062Z,16.13
2018-11-14T02:32:17.871Z,13.33
2018-11-14T02:32:52.665Z,16.27
2018-11-14T02:33:27.017Z,12.60
2018-11-14T02:34:01.385Z,16.63
2018-11-14T02:34:35.742Z,20.70
2018-11-14T02:35:10.478Z,14.40
2018-11-14T02:35:45.045Z,15.73
2018-11-14T02:36:20.082Z,15.43
2018-11-14T02:36:54.506Z,13.23
2018-11-14T02:37:28.885Z,15.77
2018-11-14T02:38:03.397Z,17.07
2018-11-14T02:38:37.807Z,14.67
2018-11-14T02:39:12.180Z,11.23
2018-11-14T02:39:46.577Z,15.00
2018-11-14T02:40:22.206Z,16.03
2018-11-14T02:40:56.600Z,16.27
2018-11-14T02:41:30.972Z,14.63
2018-11-14T02:42:05.948Z,11.53
2018-11-14T02:42:40.535Z,11.77
2018-11-14T02:43:14.969Z,13.73
2018-11-14T02:43:49.475Z,14.03
2018-11-14T02:44:23.846Z,14.13
2018-11-14T02:44:58.177Z,16.13
2018-11-14T02:45:32.525Z,14.40
2018-11-14T02:46:06.900Z,15.77
2018-11-14T02:46:41.241Z,13.30
2018-11-14T02:47:15.883Z,15.60
2018-11-14T02:47:50.611Z,20.73
2018-11-14T02:48:24.936Z,14.13
2018-11-14T02:48:59.437Z,11.47
2018-11-14T02:49:33.786Z,12.53
2018-11-14T02:50:10.165Z,15.90
2018-11-14T02:50:44.657Z,16.20
2018-11-14T02:51:28.092Z,16.87
2018-11-14T02:52:02.472Z,16.87
2018-11-14T02:52:36.820Z,17.33
2018-11-14T02:53:11.255Z,11.80
2018-11-14T02:53:45.722Z,15.80
2018-11-14T02:54:20.224Z,16.43
2018-11-14T02:54:54.574Z,17.03
2018-11-14T02:55:28.942Z,15.97
2018-11-14T02:56:11.499Z,14.90
2018-11-14T02:56:46.013Z,19.67
2018-11-14T02:57:20.672Z,14.17
2018-11-14T02:57:55.140Z,16.03
2018-11-14T02:58:29.480Z,19.03
2018-11-14T02:59:04.197Z,13.63
2018-11-14T02:59:38.588Z,17.10
2018-11-14T03:00:16.712Z,14.47
2018-11-14T03:00:51.231Z,15.20
2018-11-14T03:01:25.602Z,16.60
2018-11-14T03:01:59.932Z,17.90
2018-11-14T03:02:34.285Z,14.03
2018-11-14T03:03:08.809Z,17.63
2018-11-14T03:03:43.181Z,16.03
2018-11-14T03:04:17.610Z,17.20
2018-11-14T03:04:52.064Z,18.30
2018-11-14T03:05:26.419Z,15.50
2018-11-14T03:06:00.793Z,17.13
2018-11-14T03:06:35.159Z,19.03
2018-11-14T03:07:09.501Z,21.17
2018-11-14T03:07:43.886Z,17.93
2018-11-14T03:08:18.328Z,17.07
2018-11-14T03:08:52.929Z,18.87
2018-11-14T03:09:27.281Z,16.73
2018-11-14T03:10:01.644Z,16.00
2018-11-14T03:10:36.056Z,21.73
2018-11-14T03:11:10.700Z,18.43
2018-11-14T03:11:45.289Z,16.77
2018-11-14T03:12:19.915Z,18.07
2018-11-14T03:12:54.437Z,17.83
2018-11-14T03:13:28.772Z,18.70
2018-11-14T03:14:03.148Z,18.83
2018-11-14T03:14:37.732Z,15.10
2018-11-14T03:15:14.733Z,20.27
2018-11-14T03:15:49.243Z,16.30
2018-11-14T03:16:23.758Z,18.20
2018-11-14T03:16:58.262Z,17.80
2018-11-14T03:17:32.637Z,18.90
2018-11-14T03:18:07.094Z,19.93
2018-11-14T03:18:41.447Z,13.70
2018-11-14T03:19:15.984Z,15.73
2018-11-14T03:19:50.576Z,16.53
2018-11-14T03:20:24.933Z,16.77
2018-11-14T03:20:59.344Z,17.20
2018-11-14T03:21:33.732Z,18.63
2018-11-14T03:22:08.275Z,17.73
2018-11-14T03:22:42.650Z,14.60
2018-11-14T03:23:17.318Z,18.03
2018-11-14T03:23:51.839Z,15.60
2018-11-14T03:24:26.205Z,19.40
2018-11-14T03:25:00.624Z,21.70
2018-11-14T03:25:34.992Z,14.47
2018-11-14T03:26:09.384Z,17.47
2018-11-14T03:26:43.796Z,16.87
2018-11-14T03:27:18.325Z,21.70
2018-11-14T03:27:52.880Z,14.27
2018-11-14T03:28:27.379Z,16.10
2018-11-14T03:29:01.745Z,16.13
2018-11-14T03:29:36.128Z,18.97
2018-11-14T03:30:13.264Z,20.07
2018-11-14T03:30:47.749Z,19.03
2018-11-14T03:31:22.206Z,17.10
2018-11-14T03:31:56.580Z,15.23
2018-11-14T03:32:30.942Z,20.20
2018-11-14T03:33:05.708Z,17.20
2018-11-14T03:33:40.131Z,17.80
2018-11-14T03:34:14.665Z,16.67
2018-11-14T03:34:49.307Z,17.77
2018-11-14T03:35:24.017Z,16.03
2018-11-14T03:36:03.737Z,15.50
2018-11-14T03:36:38.321Z,15.03
2018-11-14T03:37:12.753Z,16.87
2018-11-14T03:37:47.211Z,16.17
2018-11-14T03:38:21.972Z,15.27
2018-11-14T03:38:56.366Z,17.10
2018-11-14T03:39:30.741Z,19.67
2018-11-14T03:40:06.378Z,13.43
2018-11-14T03:40:40.777Z,20.03
2018-11-14T03:41:15.485Z,16.53
2018-11-14T03:41:50.064Z,18.07
2018-11-14T03:42:24.732Z,18.37
2018-11-14T03:42:59.272Z,16.70
2018-11-14T03:43:36.535Z,16.37
2018-11-14T03:44:10.925Z,17.77
2018-11-14T03:44:45.515Z,18.97
2018-11-14T03:45:20.038Z,22.80
2018-11-14T03:45:54.452Z,21.47
2018-11-14T03:46:29.073Z,19.00
2018-11-14T03:47:03.485Z,16.47
2018-11-14T03:47:38.159Z,20.23
2018-11-14T03:48:12.552Z,20.47
2018-11-14T03:48:47.090Z,18.07
2018-11-14T03:49:21.629Z,19.23
2018-11-14T03:49:56.074Z,16.87
2018-11-14T03:50:30.836Z,20.87
2018-11-14T03:51:05.299Z,20.20
2018-11-14T03:51:39.710Z,18.77
2018-11-14T03:52:14.458Z,20.63
2018-11-14T03:52:48.929Z,20.13
2018-11-14T03:53:23.373Z,20.77
2018-11-14T03:53:57.780Z,17.50
2018-11-14T03:54:32.183Z,17.73
2018-11-14T03:55:07.029Z,17.73
2018-11-14T03:55:41.434Z,13.70
2018-11-14T03:56:16.333Z,14.53
2018-11-14T03:56:50.799Z,12.93
2018-11-14T03:57:25.220Z,12.20
2018-11-14T03:57:59.610Z,13.83
2018-11-14T03:58:34.083Z,11.07
2018-11-14T03:59:08.586Z,11.63
2018-11-14T03:59:42.996Z,15.73
2018-11-14T04:00:17.736Z,11.57
2018-11-14T04:00:52.342Z,9.77
2018-11-14T04:01:26.800Z,9.83
2018-11-14T04:02:01.202Z,12.80
2018-11-14T04:02:35.783Z,14.63
2018-11-14T04:03:10.276Z,15.40
2018-11-14T04:03:44.872Z,12.37
2018-11-14T04:04:19.296Z,13.87
2018-11-14T04:04:53.921Z,14.67
2018-11-14T04:05:28.315Z,14.03
2018-11-14T04:06:02.941Z,12.17
2018-11-14T04:06:37.395Z,12.57
2018-11-14T04:07:12.001Z,11.37
2018-11-14T04:07:46.477Z,12.13
2018-11-14T04:08:20.986Z,14.93
2018-11-14T04:08:55.385Z,13.67
2018-11-14T04:09:29.808Z,13.17
2018-11-14T04:10:05.790Z,13.10
2018-11-14T04:10:40.335Z,11.23
2018-11-14T04:11:14.789Z,11.30
2018-11-14T04:11:49.286Z,12.90
2018-11-14T04:12:23.820Z,10.30
2018-11-14T04:12:58.455Z,11.87
2018-11-14T04:13:32.824Z,13.70
2018-11-14T04:14:07.286Z,16.57
2018-11-14T04:14:41.687Z,14.17
2018-11-14T04:15:16.800Z,14.90
2018-11-14T04:15:51.506Z,12.27
2018-11-14T04:16:25.939Z,11.97
2018-11-14T04:17:00.328Z,12.73
2018-11-14T04:17:34.818Z,14.93
2018-11-14T04:18:09.173Z,12.03
2018-11-14T04:18:43.595Z,14.23
2018-11-14T04:19:18.251Z,11.90
2018-11-14T04:19:52.732Z,12.50
2018-11-14T04:20:27.137Z,14.47
2018-11-14T04:21:01.502Z,12.97
2018-11-14T04:21:35.923Z,11.93
2018-11-14T04:22:10.296Z,15.80
2018-11-14T04:22:45.294Z,15.43
2018-11-14T04:23:19.989Z,12.03
2018-11-14T04:23:54.420Z,19.67
2018-11-14T04:24:28.816Z,19.50
2018-11-14T04:25:03.181Z,12.73
2018-11-14T04:25:37.517Z,15.83
2018-11-14T04:26:11.868Z,15.27
2018-11-14T04:26:46.349Z,14.83
2018-11-14T04:27:20.976Z,12.30
2018-11-14T04:27:55.369Z,11.50
2018-11-14T04:28:29.757Z,17.67
2018-11-14T04:29:04.161Z,15.47
2018-11-14T04:29:38.521Z,15.73
2018-11-14T04:30:16.661Z,15.33
2018-11-14T04:30:51.200Z,14.27
2018-11-14T04:31:25.615Z,14.77
2018-11-14T04:32:00.085Z,15.77
2018-11-14T04:32:34.576Z,15.87
2018-11-14T04:33:08.951Z,21.93
2018-11-14T04:33:43.634Z,15.27
2018-11-14T04:34:18.121Z,13.83
2018-11-14T04:34:52.702Z,17.57
2018-11-14T04:35:27.069Z,17.13
2018-11-14T04:36:01.437Z,12.57
2018-11-14T04:36:35.811Z,14.93
2018-11-14T04:37:10.611Z,12.77
2018-11-14T04:37:45.148Z,13.43
2018-11-14T04:38:19.784Z,17.13
2018-11-14T04:38:54.300Z,12.40
2018-11-14T04:39:28.696Z,14.07
2018-11-14T04:40:03.108Z,15.57
2018-11-14T04:40:37.477Z,12.00
2018-11-14T04:41:11.871Z,13.97
2018-11-14T04:41:46.249Z,14.37
2018-11-14T04:42:20.740Z,13.50
2018-11-14T04:42:55.180Z,19.00
2018-11-14T04:43:29.562Z,13.30
2018-11-14T04:44:04.733Z,13.20
2018-11-14T04:44:39.080Z,18.80
2018-11-14T04:45:14.887Z,13.27
2018-11-14T04:45:49.292Z,11.00
2018-11-14T04:46:23.736Z,16.77
2018-11-14T04:46:58.099Z,14.63
2018-11-14T04:47:32.530Z,15.60
2018-11-14T04:48:06.953Z,17.13
2018-11-14T04:48:41.489Z,14.80
2018-11-14T04:49:16.389Z,12.10
2018-11-14T04:49:50.882Z,16.73
2018-11-14T04:50:26.405Z,15.10
2018-11-14T04:51:00.774Z,17.53
2018-11-14T04:51:35.160Z,13.87
2018-11-14T04:52:09.550Z,14.23
2018-11-14T04:52:44.932Z,14.57
2018-11-14T04:53:19.344Z,14.90
2018-11-14T04:53:53.708Z,14.87
2018-11-14T04:54:28.062Z,16.60
2018-11-14T04:55:02.461Z,16.00
2018-11-14T04:55:37.187Z,21.27
2018-11-14T04:56:11.556Z,18.73
2018-11-14T04:56:46.014Z,18.30
2018-11-14T04:57:20.393Z,18.40
2018-11-14T04:57:54.816Z,19.13
2018-11-14T04:58:29.216Z,16.13
2018-11-14T04:59:03.580Z,14.93
2018-11-14T04:59:37.931Z,18.13
2018-11-14T05:00:13.774Z,17.37
2018-11-14T05:00:48.187Z,16.77
2018-11-14T05:01:22.664Z,20.30
2018-11-14T05:01:57.060Z,20.60
2018-11-14T05:02:31.449Z,16.10
2018-11-14T05:03:06.560Z,17.37
2018-11-14T05:03:40.980Z,20.43
2018-11-14T05:04:15.668Z,15.70
2018-11-14T05:04:50.105Z,17.80
2018-11-14T05:05:25.269Z,22.43
2018-11-14T05:05:59.637Z,17.37
2018-11-14T05:06:34.077Z,15.43
2018-11-14T05:07:08.431Z,23.33
2018-11-14T05:07:42.820Z,21.13
2018-11-14T05:08:17.252Z,18.53
2018-11-14T05:08:51.696Z,16.27
2018-11-14T05:09:26.104Z,16.10
2018-11-14T05:10:00.513Z,21.33
2018-11-14T05:10:34.970Z,19.60
2018-11-14T05:11:09.448Z,21.37
2018-11-14T05:11:43.896Z,16.50
2018-11-14T05:12:18.374Z,18.10
2018-11-14T05:12:53.216Z,20.87
2018-11-14T05:13:27.807Z,18.60
2018-11-14T05:14:02.171Z,25.80
2018-11-14T05:14:36.561Z,26.07
2018-11-14T05:15:12.504Z,30.10
2018-11-14T05:15:47.022Z,37.03
2018-11-14T05:16:21.936Z,30.50
2018-11-14T05:16:56.289Z,31.73
2018-11-14T05:17:30.656Z,27.87
2018-11-14T05:18:05.432Z,34.57
2018-11-14T05:18:39.779Z,30.50
2018-11-14T05:19:14.489Z,27.87
2018-11-14T05:19:49.014Z,27.20
2018-11-14T05:20:23.637Z,32.27
2018-11-14T05:20:58.033Z,34.43
2018-11-14T05:21:32.527Z,28.70
2018-11-14T05:22:06.989Z,31.73
2018-11-14T05:22:41.576Z,31.30
2018-11-14T05:23:16.074Z,38.37
2018-11-14T05:23:50.448Z,41.90
2018-11-14T05:24:25.017Z,38.83
2018-11-14T05:24:59.525Z,43.40
2018-11-14T05:25:33.918Z,42.23
2018-11-14T05:26:08.241Z,42.03
2018-11-14T05:26:42.604Z,46.93
2018-11-14T05:27:17.044Z,45.53
2018-11-14T05:27:51.732Z,41.67
2018-11-14T05:28:26.139Z,50.83
2018-11-14T05:29:00.525Z,43.63
2018-11-14T05:29:34.903Z,45.10
2018-11-14T05:30:12.145Z,46.80
2018-11-14T05:30:46.660Z,49.07
2018-11-14T05:31:21.308Z,46.00
2018-11-14T05:31:55.696Z,47.53
2018-11-14T05:32:30.255Z,49.23
2018-11-14T05:33:04.691Z,47.37
2018-11-14T05:33:39.098Z,45.77
2018-11-14T05:34:13.565Z,49.50
2018-11-14T05:34:48.227Z,45.20
2018-11-14T05:35:22.667Z,49.20
2018-11-14T05:35:57.023Z,57.67
2018-11-14T05:36:31.432Z,52.90
2018-11-14T05:37:06.077Z,57.17
2018-11-14T05:37:40.699Z,55.20
2018-11-14T05:38:15.478Z,58.10
2018-11-14T05:38:50.095Z,68.70
2018-11-14T05:39:24.542Z,49.03
2018-11-14T05:39:58.919Z,52.53
2018-11-14T05:40:33.605Z,59.40
2018-11-14T05:41:07.972Z,59.63
2018-11-14T05:41:42.376Z,49.77
2018-11-14T05:42:16.968Z,61.43
2018-11-14T05:42:52.137Z,69.43
2018-11-14T05:43:26.644Z,55.17
2018-11-14T05:44:01.060Z,55.17
2018-11-14T05:44:35.747Z,68.50
2018-11-14T05:45:14.268Z,61.27
2018-11-14T05:45:49.059Z,67.33
2018-11-14T05:46:23.626Z,56.17
2018-11-14T05:46:57.999Z,64.37
2018-11-14T05:47:32.368Z,67.27
2018-11-14T05:48:07.053Z,52.97
2018-11-14T05:48:41.421Z,55.87
2018-11-14T05:49:16.355Z,52.17
2018-11-14T05:49:50.873Z,53.80
2018-11-14T05:50:25.279Z,54.87
2018-11-14T05:50:59.672Z,48.83
2018-11-14T05:51:34.106Z,56.67
2018-11-14T05:52:08.612Z,52.13
2018-11-14T05:52:43.670Z,52.63
2018-11-14T05:53:18.183Z,55.47
2018-11-14T05:53:52.616Z,52.47
2018-11-14T05:54:27.111Z,55.07
2018-11-14T05:55:01.696Z,59.07
2018-11-14T05:55:36.234Z,62.73
2018-11-14T05:56:10.607Z,61.50
2018-11-14T05:56:45.160Z,49.33
2018-11-14T05:57:19.660Z,50.37
2018-11-14T05:57:54.146Z,48.33
2018-11-14T05:58:28.512Z,50.27
2018-11-14T05:59:02.897Z,47.73
2018-11-14T05:59:37.282Z,68.53
2018-11-14T06:00:25.594Z,68.93
2018-11-14T06:00:59.974Z,63.77
2018-11-14T06:01:34.452Z,68.63
2018-11-14T06:02:08.820Z,68.27
2018-11-14T06:02:44.248Z,83.70
2018-11-14T06:03:19.220Z,79.13
2018-11-14T06:03:53.667Z,72.47
2018-11-14T06:04:28.137Z,70.03
2018-11-14T06:05:02.495Z,65.17
2018-11-14T06:05:36.880Z,75.50
2018-11-14T06:06:11.273Z,73.07
2018-11-14T06:06:45.702Z,67.50
2018-11-14T06:07:20.351Z,60.00
2018-11-14T06:07:54.992Z,70.60
2018-11-14T06:08:29.391Z,70.47
2018-11-14T06:09:04.430Z,66.93
2018-11-14T06:09:38.801Z,59.50
2018-11-14T06:10:13.604Z,72.97
2018-11-14T06:10:48.073Z,65.73
2018-11-14T06:11:22.659Z,63.63
2018-11-14T06:11:57.057Z,79.73
2018-11-14T06:12:31.568Z,52.87
2018-11-14T06:13:05.960Z,64.50
2018-11-14T06:13:40.429Z,61.10
2018-11-14T06:14:14.876Z,63.33
2018-11-14T06:14:49.552Z,51.20
2018-11-14T06:15:24.154Z,60.37
2018-11-14T06:15:58.653Z,46.93
2018-11-14T06:16:33.020Z,47.23
2018-11-14T06:17:07.394Z,39.40
2018-11-14T06:17:43.103Z,38.40
2018-11-14T06:18:17.632Z,38.27
2018-11-14T06:18:52.066Z,38.07
2018-11-14T06:19:26.508Z,31.53
2018-11-14T06:20:00.852Z,31.93
2018-11-14T06:20:35.304Z,36.10
2018-11-14T06:21:09.666Z,32.33
2018-11-14T06:21:44.184Z,27.90
2018-11-14T06:22:18.838Z,31.67
2018-11-14T06:22:53.768Z,32.17
2018-11-14T06:23:28.214Z,31.07
2018-11-14T06:24:03.215Z,33.80
2018-11-14T06:24:37.612Z,31.03
2018-11-14T06:25:27.428Z,30.63
2018-11-14T06:26:01.957Z,26.63
2018-11-14T06:26:36.328Z,28.97
2018-11-14T06:27:10.806Z,28.13
2018-11-14T06:27:45.435Z,25.53
2018-11-14T06:28:19.893Z,28.80
2018-11-14T06:28:54.290Z,26.70
2018-11-14T06:29:28.642Z,30.10
2018-11-14T06:30:03.058Z,26.00
2018-11-14T06:30:38.605Z,25.30
2018-11-14T06:31:13.231Z,24.00
2018-11-14T06:31:47.739Z,28.37
2018-11-14T06:32:22.128Z,26.13
2018-11-14T06:32:57.019Z,23.73
2018-11-14T06:33:31.410Z,25.37
2018-11-14T06:34:06.610Z,27.97
2018-11-14T06:34:40.986Z,24.77
2018-11-14T06:35:16.613Z,25.23
2018-11-14T06:35:51.226Z,24.47
2018-11-14T06:36:25.685Z,30.07
2018-11-14T06:37:00.173Z,22.97
2018-11-14T06:37:35.100Z,21.47
2018-11-14T06:38:09.515Z,21.37
2018-11-14T06:38:44.364Z,24.57
2018-11-14T06:39:19.416Z,25.67
2018-11-14T06:39:53.952Z,25.60
2018-11-14T06:40:28.345Z,23.33
2018-11-14T06:41:02.725Z,30.63
2018-11-14T06:41:37.693Z,30.17
2018-11-14T06:42:12.244Z,26.63
2018-11-14T06:42:47.314Z,26.63
2018-11-14T06:43:21.927Z,26.90
2018-11-14T06:43:56.333Z,27.10
2018-11-14T06:44:30.719Z,29.10
2018-11-14T06:45:06.221Z,26.10
2018-11-14T06:45:40.656Z,26.10
2018-11-14T06:46:15.530Z,31.27
2018-11-14T06:46:50.172Z,29.17
2018-11-14T06:47:24.664Z,25.43
2018-11-14T06:48:00.082Z,23.90
2018-11-14T06:48:34.503Z,29.70
2018-11-14T06:49:08.877Z,24.70
2018-11-14T06:49:43.557Z,24.53
2018-11-14T06:50:18.466Z,24.97
2018-11-14T06:50:52.876Z,25.73
2018-11-14T06:51:27.236Z,22.13
2018-11-14T06:52:01.618Z,19.87
2018-11-14T06:52:36.475Z,23.97
2018-11-14T06:53:10.837Z,24.37
2018-11-14T06:53:45.855Z,25.73
2018-11-14T06:54:20.415Z,24.87
2018-11-14T06:54:54.964Z,27.03
2018-11-14T06:55:29.366Z,26.30
2018-11-14T06:56:03.765Z,27.03
2018-11-14T06:56:38.130Z,40.70
2018-11-14T06:57:12.497Z,43.13
2018-11-14T06:57:47.491Z,44.40
2018-11-14T06:58:21.925Z,39.23
2018-11-14T06:58:56.364Z,47.77
2018-11-14T06:59:30.956Z,42.20
2018-11-14T07:00:07.918Z,39.47
2018-11-14T07:00:42.347Z,42.40
2018-11-14T07:01:16.929Z,42.33
2018-11-14T07:01:51.479Z,40.80
2018-11-14T07:02:27.321Z,44.67
2018-11-14T07:03:01.505Z,40.33
2018-11-14T07:03:35.918Z,41.60
2018-11-14T07:04:10.283Z,44.47
2018-11-14T07:04:44.946Z,60.80
2018-11-14T07:05:19.395Z,42.47
2018-11-14T07:05:54.032Z,46.77
2018-11-14T07:06:28.544Z,43.40
2018-11-14T07:07:02.956Z,43.67
2018-11-14T07:07:37.363Z,44.67
2018-11-14T07:08:11.783Z,39.97
2018-11-14T07:08:46.294Z,40.43
2018-11-14T07:09:21.007Z,40.63
2018-11-14T07:09:55.808Z,43.60
2018-11-14T07:10:31.757Z,45.57
2018-11-14T07:11:06.517Z,49.70
2018-11-14T07:11:41.077Z,55.80
2018-11-14T07:12:15.627Z,55.57
2018-11-14T07:12:50.289Z,50.23
2018-11-14T07:13:24.713Z,61.17
2018-11-14T07:13:59.072Z,59.70
2018-11-14T07:14:33.457Z,55.37
2018-11-14T07:15:12.520Z,62.77
2018-11-14T07:15:47.080Z,62.83
2018-11-14T07:16:21.649Z,63.93
2018-11-14T07:16:56.016Z,66.03
2018-11-14T07:17:30.404Z,62.00
2018-11-14T07:18:04.930Z,62.60
2018-11-14T07:18:39.431Z,71.73
2018-11-14T07:19:13.903Z,65.43
2018-11-14T07:19:48.689Z,55.67
2018-11-14T07:20:25.588Z,65.97
2018-11-14T07:20:59.990Z,65.77
2018-11-14T07:21:34.406Z,60.67
2018-11-14T07:22:08.819Z,62.43
2018-11-14T07:22:43.769Z,60.17
2018-11-14T07:23:18.475Z,55.13
2018-11-14T07:23:53.002Z,49.93
2018-11-14T07:24:27.548Z,58.30
2018-11-14T07:25:02.064Z,55.20
2018-11-14T07:25:36.946Z,45.20
2018-11-14T07:26:11.359Z,55.37
2018-11-14T07:26:46.216Z,49.60
2018-11-14T07:27:20.793Z,51.40